Time;durP1;ratioP1;P1;durP2;ratioP2;P2;SDS_P1;SDS_P2;PMS_P1;PMS_P2;Temp;Humidity;BMP_temperature;BMP_pressure;BME280_temperature;BME280_humidity;BME280_pressure;Samples;Min_cycle;Max_cycle;Signal;HPM_P1;HPM_P2
2023/12/13 00:02:07;;;;;;;8.52;2.78;;;;;;;7.64;100.00;99482.97;5035806;28;20025;-78
2023/12/13 00:04:33;;;;;;;10.23;3.40;;;;;;;7.63;100.00;99483.09;5036708;28;20108;-79
2023/12/13 00:06:58;;;;;;;11.55;2.53;;;;;;;7.62;100.00;99487.56;5032209;28;20025;-78
2023/12/13 00:09:24;;;;;;;8.07;2.38;;;;;;;7.62;100.00;99487.56;5034960;28;20388;-77
2023/12/13 00:11:49;;;;;;;12.32;2.80;;;;;;;7.63;100.00;99478.59;5033413;28;20025;-78
2023/12/13 00:14:14;;;;;;;9.18;2.33;;;;;;;7.61;100.00;99477.84;5030237;28;20029;-71
2023/12/13 00:16:39;;;;;;;6.82;2.40;;;;;;;7.61;100.00;99472.50;5039437;28;20107;-78
2023/12/13 00:19:06;;;;;;;7.18;2.25;;;;;;;7.61;100.00;99480.53;5032528;28;20171;-77
2023/12/13 00:21:31;;;;;;;11.32;2.50;;;;;;;7.62;100.00;99478.72;5029076;28;20443;-78
2023/12/13 00:23:56;;;;;;;6.70;2.33;;;;;;;7.62;100.00;99468.88;5032770;28;20160;-78
2023/12/13 00:26:24;;;;;;;11.68;3.08;;;;;;;7.59;100.00;99477.13;5037152;28;20022;-77
2023/12/13 00:28:50;;;;;;;8.80;2.70;;;;;;;7.59;100.00;99476.31;5036841;28;20033;-78
2023/12/13 00:31:15;;;;;;;12.68;2.90;;;;;;;7.58;100.00;99482.63;5038936;28;20051;-78
2023/12/13 00:33:41;;;;;;;10.15;2.50;;;;;;;7.56;100.00;99477.41;5033460;28;20123;-78
2023/12/13 00:36:07;;;;;;;10.40;2.40;;;;;;;7.57;100.00;99475.56;5038268;28;20044;-78
2023/12/13 00:38:32;;;;;;;8.85;2.65;;;;;;;7.55;100.00;99467.66;5035827;28;20497;-78
2023/12/13 00:40:57;;;;;;;10.15;2.70;;;;;;;7.55;100.00;99472.19;5035227;28;20029;-78
2023/12/13 00:43:23;;;;;;;7.65;2.50;;;;;;;7.56;100.00;99472.06;5031369;28;20130;-77
2023/12/13 00:45:49;;;;;;;9.93;2.47;;;;;;;7.53;100.00;99466.97;5034748;28;21110;-78
2023/12/13 00:48:14;;;;;;;9.38;2.40;;;;;;;7.54;100.00;99474.03;5031537;28;20029;-78
2023/12/13 00:50:39;;;;;;;10.18;2.70;;;;;;;7.53;100.00;99467.81;5034111;28;20440;-77
2023/12/13 00:53:04;;;;;;;8.85;2.10;;;;;;;7.53;100.00;99474.97;5034319;28;20134;-78
2023/12/13 00:55:30;;;;;;;10.93;2.70;;;;;;;7.53;100.00;99465.13;5034787;28;20029;-77
2023/12/13 00:57:55;;;;;;;9.45;2.60;;;;;;;7.55;100.00;99465.00;5036567;28;20030;-76
2023/12/13 01:00:20;;;;;;;9.48;2.35;;;;;;;7.54;100.00;99463.31;5031675;28;20056;-77
2023/12/13 01:02:45;;;;;;;10.70;2.72;;;;;;;7.53;100.00;99465.13;5026356;28;20405;-77
2023/12/13 01:05:11;;;;;;;9.23;2.20;;;;;;;7.54;100.00;99463.31;5033345;28;20035;-78
2023/12/13 01:07:36;;;;;;;10.07;2.33;;;;;;;7.56;100.00;99464.03;5037003;28;20029;-78
2023/12/13 01:10:02;;;;;;;12.02;3.10;;;;;;;7.53;100.00;99454.44;5034486;28;20021;-77
2023/12/13 01:12:27;;;;;;;10.45;2.85;;;;;;;7.52;100.00;99463.41;5039384;28;20025;-77
2023/12/13 01:14:53;;;;;;;11.85;2.50;;;;;;;7.51;100.00;99458.19;5035314;28;20021;-78
2023/12/13 01:17:18;;;;;;;9.00;2.92;;;;;;;7.52;100.00;99457.22;5032416;28;20453;-78
2023/12/13 01:19:44;;;;;;;9.40;2.67;;;;;;;7.51;100.00;99458.19;5027071;28;20037;-78
2023/12/13 01:22:09;;;;;;;10.57;2.75;;;;;;;7.53;100.00;99464.28;5027272;28;20039;-78
2023/12/13 01:24:34;;;;;;;8.00;2.40;;;;;;;7.52;100.00;99459.91;5035734;28;20056;-78
2023/12/13 01:27:00;;;;;;;12.00;3.05;;;;;;;7.54;100.00;99460.66;5034182;28;20056;-77
2023/12/13 01:29:25;;;;;;;10.15;2.60;;;;;;;7.52;100.00;99463.41;5035625;28;20071;-78
2023/12/13 01:31:50;;;;;;;14.52;3.10;;;;;;;7.53;100.00;99453.59;5037035;28;20075;-78
2023/12/13 01:34:15;;;;;;;10.98;2.92;;;;;;;7.52;100.00;99455.41;5036665;28;20027;-78
2023/12/13 01:36:41;;;;;;;12.10;3.47;;;;;;;7.52;100.00;99457.22;5037602;28;20468;-78
2023/12/13 01:39:07;;;;;;;9.15;2.70;;;;;;;7.52;100.00;99454.56;5039617;28;20017;-78
2023/12/13 01:41:33;;;;;;;12.07;2.72;;;;;;;7.51;100.00;99451.06;5038275;28;20054;-77
2023/12/13 01:43:58;;;;;;;13.73;3.80;;;;;;;7.52;100.00;99460.75;5034791;28;20068;-78
2023/12/13 01:46:23;;;;;;;11.77;3.65;;;;;;;7.53;100.00;99451.75;5034776;28;20017;-78
2023/12/13 01:48:49;;;;;;;13.55;3.20;;;;;;;7.55;100.00;99465.00;5034750;28;20489;-78
2023/12/13 01:51:15;;;;;;;10.55;3.50;;;;;;;7.55;100.00;99456.97;5034982;28;20037;-77
2023/12/13 01:53:41;;;;;;;10.32;3.10;;;;;;;7.56;100.00;99474.72;5036845;28;20074;-78
2023/12/13 01:56:09;;;;;;;13.35;3.08;;;;;;;7.56;100.00;99468.53;5028631;28;20130;-78
2023/12/13 01:58:39;;;;;;;10.95;2.92;;;;;;;7.55;100.00;99467.66;5033746;28;20029;-77
2023/12/13 02:01:08;;;;;;;13.85;3.88;;;;;;;7.56;100.00;99468.53;5040727;28;20033;-79
2023/12/13 02:03:35;;;;;;;10.18;2.72;;;;;;;7.56;100.00;99471.22;5038166;28;20041;-78
2023/12/13 02:06:01;;;;;;;16.02;3.75;;;;;;;7.56;100.00;99469.38;5040100;28;20033;-79
2023/12/13 02:08:27;;;;;;;11.13;3.45;;;;;;;7.57;100.00;99464.88;5033605;28;20187;-79
2023/12/13 02:10:53;;;;;;;12.90;3.60;;;;;;;7.58;100.00;99464.75;5034733;28;20123;-78
2023/12/13 02:13:18;;;;;;;13.70;3.50;;;;;;;7.56;100.00;99457.84;5038554;28;20028;-78
2023/12/13 02:15:44;;;;;;;14.60;3.42;;;;;;;7.56;100.00;99465.88;5033697;28;20040;-78
2023/12/13 02:18:10;;;;;;;15.15;4.13;;;;;;;7.55;100.00;99459.66;5033972;28;20034;-78
2023/12/13 02:20:36;;;;;;;12.23;3.33;;;;;;;7.57;100.00;99464.88;5028900;28;20507;-78
2023/12/13 02:23:01;;;;;;;17.88;3.58;;;;;;;7.59;100.00;99461.09;5033012;28;20164;-79
2023/12/13 02:25:49;;;;;;;12.60;3.03;;;;;;;7.58;100.00;99458.56;5034251;28;20099;-79
2023/12/13 02:28:15;;;;;;;17.63;4.07;;;;;;;7.56;100.00;99457.84;5033066;28;20049;-78
2023/12/13 02:30:42;;;;;;;14.55;3.45;;;;;;;7.55;100.00;99448.97;5030605;28;20427;-75
2023/12/13 02:33:08;;;;;;;13.82;4.03;;;;;;;7.58;100.00;99448.69;5038199;28;20031;-78
2023/12/13 02:35:34;;;;;;;11.65;3.58;;;;;;;7.59;100.00;99447.72;5035309;28;20462;-71
2023/12/13 02:37:59;;;;;;;11.88;3.40;;;;;;;7.59;100.00;99444.22;5034448;28;20053;-72
2023/12/13 02:40:25;;;;;;;13.43;3.35;;;;;;;7.56;100.00;99445.31;5035191;28;20086;-71
2023/12/13 02:42:50;;;;;;;12.75;3.72;;;;;;;7.55;100.00;99446.28;5036186;28;20048;-71
2023/12/13 02:45:16;;;;;;;16.10;3.78;;;;;;;7.53;100.00;99437.56;5034669;28;20056;-72
2023/12/13 02:47:42;;;;;;;13.85;3.42;;;;;;;7.51;100.00;99448.38;5035300;28;20381;-71
2023/12/13 02:50:16;;;;;;;16.92;3.95;;;;;;;7.51;100.00;99445.69;5034936;28;20500;-71
2023/12/13 02:52:41;;;;;;;12.07;3.63;;;;;;;7.50;100.00;99449.34;5031191;28;20018;-71
2023/12/13 02:55:09;;;;;;;20.13;4.13;;;;;;;7.51;100.00;99443.03;5033504;28;20070;-72
2023/12/13 02:57:35;;;;;;;16.58;3.78;;;;;;;7.50;100.00;99446.66;5034387;28;20029;-70
2023/12/13 03:00:00;;;;;;;13.85;4.03;;;;;;;7.52;100.00;99444.72;5029621;28;20401;-71
2023/12/13 03:02:26;;;;;;;14.88;3.65;;;;;;;7.52;100.00;99436.69;5034840;28;20021;-71
2023/12/13 03:04:51;;;;;;;10.75;3.20;;;;;;;7.53;100.00;99450.91;5030560;28;20481;-71
2023/12/13 03:07:17;;;;;;;11.57;3.40;;;;;;;7.52;100.00;99441.19;5029132;28;20021;-71
2023/12/13 03:09:43;;;;;;;14.02;3.53;;;;;;;7.51;100.00;99443.03;5038276;28;20485;-71
2023/12/13 03:12:08;;;;;;;18.30;3.67;;;;;;;7.51;100.00;99443.03;5032106;28;20033;-72
2023/12/13 03:14:33;;;;;;;11.80;3.38;;;;;;;7.53;100.00;99445.56;5031619;28;20044;-72
2023/12/13 03:16:58;;;;;;;16.25;3.83;;;;;;;7.52;100.00;99442.03;5037224;28;20083;-72
2023/12/13 03:19:24;;;;;;;14.77;3.67;;;;;;;7.55;100.00;99442.78;5038051;28;20021;-71
2023/12/13 03:21:49;;;;;;;17.33;3.97;;;;;;;7.53;100.00;99435.72;5038127;28;20025;-71
2023/12/13 03:24:14;;;;;;;15.50;3.45;;;;;;;7.55;100.00;99435.59;5038738;28;20029;-71
2023/12/13 03:26:40;;;;;;;20.58;4.07;;;;;;;7.56;100.00;99433.78;5037834;28;20028;-71
2023/12/13 03:29:05;;;;;;;16.48;3.63;;;;;;;7.58;100.00;99438.00;5033062;28;20025;-72
2023/12/13 03:31:30;;;;;;;14.30;3.58;;;;;;;7.57;100.00;99433.66;5034665;28;20056;-71
2023/12/13 03:33:56;;;;;;;16.88;3.72;;;;;;;7.58;100.00;99435.34;5037260;28;20037;-71
2023/12/13 03:36:21;;;;;;;20.15;3.85;;;;;;;7.61;100.00;99431.56;5036332;28;20033;-72
2023/12/13 03:38:46;;;;;;;17.48;3.58;;;;;;;7.61;100.00;99421.69;5033494;28;20044;-71
2023/12/13 03:41:12;;;;;;;18.20;3.70;;;;;;;7.61;100.00;99421.69;5034408;28;20033;-71
2023/12/13 03:43:39;;;;;;;14.65;3.42;;;;;;;7.61;100.00;99428.88;5032468;28;20044;-71
2023/12/13 03:46:04;;;;;;;13.43;3.80;;;;;;;7.62;100.00;99420.72;5030909;28;20032;-72
2023/12/13 03:48:30;;;;;;;17.52;4.05;;;;;;;7.63;100.00;99422.44;5034770;28;20480;-73
2023/12/13 03:50:55;;;;;;;15.10;3.38;;;;;;;7.64;100.00;99416.13;5030263;28;20025;-73
2023/12/13 03:53:20;;;;;;;12.73;3.53;;;;;;;7.64;100.00;99418.78;5032896;28;20066;-72
2023/12/13 03:55:45;;;;;;;12.98;3.20;;;;;;;7.66;100.00;99418.66;5033710;28;20470;-73
2023/12/13 03:58:11;;;;;;;15.82;3.78;;;;;;;7.66;100.00;99414.16;5036863;28;20104;-73
2023/12/13 04:00:36;;;;;;;22.17;4.25;;;;;;;7.67;100.00;99409.66;5035569;28;20021;-73
2023/12/13 04:03:02;;;;;;;18.33;3.67;;;;;;;7.66;100.00;99407.97;5034480;28;20096;-73
2023/12/13 04:05:28;;;;;;;14.57;3.78;;;;;;;7.65;100.00;99420.47;5037422;28;20027;-73
2023/12/13 04:07:53;;;;;;;16.98;4.20;;;;;;;7.67;100.00;99412.31;5036911;28;20124;-72
2023/12/13 04:10:19;;;;;;;17.60;4.13;;;;;;;7.66;100.00;99406.13;5034364;28;20036;-73
2023/12/13 04:12:45;;;;;;;17.58;3.83;;;;;;;7.66;100.00;99406.13;5035322;28;20025;-72
2023/12/13 04:15:10;;;;;;;23.73;4.25;;;;;;;7.67;100.00;99406.97;5026192;28;20033;-72
2023/12/13 04:17:36;;;;;;;21.48;4.70;;;;;;;7.66;100.00;99406.13;5023881;28;20068;-72
2023/12/13 04:20:02;;;;;;;18.02;4.10;;;;;;;7.67;100.00;99412.31;5034615;28;20025;-72
2023/12/13 04:22:27;;;;;;;16.67;4.30;;;;;;;7.66;100.00;99411.47;5034189;28;20032;-72
2023/12/13 04:24:52;;;;;;;19.70;4.57;;;;;;;7.67;100.00;99410.50;5033615;28;20037;-72
2023/12/13 04:27:18;;;;;;;10.75;3.33;;;;;;;7.68;100.00;99409.50;5033435;28;20134;-73
2023/12/13 04:29:43;;;;;;;14.88;3.80;;;;;;;7.69;100.00;99413.06;5032529;28;20469;-72
2023/12/13 04:32:09;;;;;;;15.13;3.75;;;;;;;7.69;100.00;99410.38;5026508;28;20117;-72
2023/12/13 04:34:34;;;;;;;17.23;4.00;;;;;;;7.69;100.00;99410.38;5035222;28;20462;-72
2023/12/13 04:37:00;;;;;;;20.35;4.00;;;;;;;7.68;100.00;99409.50;5033816;28;20270;-73
2023/12/13 04:39:25;;;;;;;16.65;4.13;;;;;;;7.68;100.00;99406.84;5034979;28;20292;-73
2023/12/13 04:41:53;;;;;;;15.48;3.50;;;;;;;7.70;100.00;99406.72;5030220;28;20179;-73
2023/12/13 04:44:19;;;;;;;21.00;4.35;;;;;;;7.71;100.00;99403.06;5035666;28;20073;-73
2023/12/13 04:46:44;;;;;;;19.63;4.70;;;;;;;7.73;100.00;99410.97;5034741;28;20022;-72
2023/12/13 04:49:09;;;;;;;15.18;3.72;;;;;;;7.72;100.00;99410.13;5024629;28;20088;-72
2023/12/13 04:51:34;;;;;;;17.90;3.90;;;;;;;7.73;100.00;99405.59;5037271;28;20380;-72
2023/12/13 04:54:01;;;;;;;15.55;4.28;;;;;;;7.73;100.00;99397.59;5038381;28;20035;-73
2023/12/13 04:56:26;;;;;;;16.98;4.22;;;;;;;7.75;100.00;99409.03;5030749;28;20033;-77
2023/12/13 04:58:51;;;;;;;17.50;4.00;;;;;;;7.74;100.00;99397.44;5035053;28;20119;-78
2023/12/13 05:01:16;;;;;;;17.63;3.58;;;;;;;7.77;100.00;99404.38;5029369;28;20025;-78
2023/12/13 05:03:42;;;;;;;18.85;4.15;;;;;;;7.75;100.00;99399.16;5037510;28;20108;-78
2023/12/13 05:06:07;;;;;;;22.48;4.80;;;;;;;7.75;100.00;99398.31;5041143;28;20032;-78
2023/12/13 05:08:33;;;;;;;17.33;3.95;;;;;;;7.76;100.00;99394.66;5038887;28;20088;-78
2023/12/13 05:10:59;;;;;;;19.80;4.15;;;;;;;7.77;100.00;99393.69;5044745;28;20485;-78
2023/12/13 05:13:25;;;;;;;16.38;4.28;;;;;;;7.77;100.00;99396.34;5037479;28;20404;-78
2023/12/13 05:15:51;;;;;;;18.52;4.35;;;;;;;7.78;100.00;99395.38;5033482;28;20022;-77
2023/12/13 05:18:16;;;;;;;19.83;4.22;;;;;;;7.78;100.00;99393.53;5040859;28;20024;-78
2023/12/13 05:20:41;;;;;;;22.27;4.63;;;;;;;7.78;100.00;99390.03;5040425;28;20604;-78
2023/12/13 05:23:07;;;;;;;20.95;5.03;;;;;;;7.78;100.00;99382.00;5041581;28;20025;-77
2023/12/13 05:25:33;;;;;;;16.05;3.47;;;;;;;7.79;100.00;99389.91;5040672;28;20124;-77
2023/12/13 05:27:58;;;;;;;29.60;5.25;;;;;;;7.78;100.00;99393.53;5041077;28;20111;-77
2023/12/13 05:30:23;;;;;;;15.05;4.05;;;;;;;7.80;100.00;99390.75;5041425;28;20029;-78
2023/12/13 05:32:51;;;;;;;20.00;4.03;;;;;;;7.80;100.00;99388.91;5042281;28;20045;-79
2023/12/13 05:35:16;;;;;;;18.35;4.10;;;;;;;7.81;100.00;99392.44;5035234;28;20524;-78
2023/12/13 05:37:41;;;;;;;22.55;4.65;;;;;;;7.81;100.00;99400.47;5037325;28;20029;-79
2023/12/13 05:40:07;;;;;;;19.75;4.40;;;;;;;7.80;100.00;99393.41;5037257;28;20033;-78
2023/12/13 05:42:33;;;;;;;17.35;3.90;;;;;;;7.80;100.00;99390.75;5038590;28;20047;-78
2023/12/13 05:44:58;;;;;;;17.20;3.72;;;;;;;7.79;100.00;99395.25;5039201;28;20500;-79
2023/12/13 05:47:24;;;;;;;22.90;4.75;;;;;;;7.79;100.00;99392.56;5038963;28;20079;-78
2023/12/13 05:49:49;;;;;;;19.77;4.55;;;;;;;7.80;100.00;99393.41;5039379;28;20106;-77
2023/12/13 05:52:14;;;;;;;20.65;4.47;;;;;;;7.81;100.00;99397.78;5036092;28;20045;-78
2023/12/13 05:54:40;;;;;;;19.63;4.30;;;;;;;7.81;100.00;99392.44;5040588;28;20037;-77
2023/12/13 05:57:05;;;;;;;25.27;5.63;;;;;;;7.82;100.00;99395.00;5034235;28;20072;-78
2023/12/13 05:59:31;;;;;;;18.50;4.18;;;;;;;7.81;100.00;99395.94;5036856;28;20509;-78
2023/12/13 06:01:56;;;;;;;18.55;3.95;;;;;;;7.81;100.00;99398.63;5037301;28;20172;-78
2023/12/13 06:04:21;;;;;;;19.25;4.68;;;;;;;7.81;100.00;99405.81;5032679;28;20515;-78
2023/12/13 06:06:48;;;;;;;20.10;5.18;;;;;;;7.79;100.00;99405.94;5039537;28;20064;-74
2023/12/13 06:09:14;;;;;;;17.85;4.57;;;;;;;7.79;100.00;99397.06;5035861;28;20069;-74
2023/12/13 06:11:39;;;;;;;17.75;3.92;;;;;;;7.78;100.00;99390.03;5032259;28;20021;-74
2023/12/13 06:14:04;;;;;;;19.75;4.30;;;;;;;7.76;100.00;99390.16;5040364;28;20429;-74
2023/12/13 06:16:30;;;;;;;17.65;4.20;;;;;;;7.75;100.00;99396.47;5045807;28;20060;-74
2023/12/13 06:18:55;;;;;;;17.55;4.45;;;;;;;7.75;100.00;99401.00;5032699;28;20052;-74
2023/12/13 06:21:20;;;;;;;18.42;5.13;;;;;;;7.75;100.00;99398.31;5039527;28;20395;-74
2023/12/13 06:23:46;;;;;;;16.75;3.80;;;;;;;7.75;100.00;99401.00;5034919;28;20076;-74
2023/12/13 06:26:11;;;;;;;15.73;3.88;;;;;;;7.73;100.00;99400.25;5034494;28;20420;-74
2023/12/13 06:28:36;;;;;;;18.40;4.28;;;;;;;7.72;100.00;99403.91;5037072;28;20057;-74
2023/12/13 06:31:02;;;;;;;17.45;4.85;;;;;;;7.72;100.00;99411.94;5034719;28;20047;-75
2023/12/13 06:33:28;;;;;;;15.43;4.07;;;;;;;7.72;100.00;99414.59;5034307;28;20124;-74
2023/12/13 06:35:53;;;;;;;23.83;4.88;;;;;;;7.70;100.00;99412.94;5035983;28;20033;-74
2023/12/13 06:38:19;;;;;;;19.83;4.32;;;;;;;7.70;100.00;99407.56;5031453;28;20025;-74
2023/12/13 06:40:44;;;;;;;17.83;4.57;;;;;;;7.70;100.00;99412.94;5032637;28;20379;-74
2023/12/13 06:43:10;;;;;;;19.80;5.30;;;;;;;7.70;100.00;99410.25;5029685;28;20069;-74
2023/12/13 06:45:35;;;;;;;22.90;4.85;;;;;;;7.69;100.00;99410.38;5032616;28;20031;-74
2023/12/13 06:48:00;;;;;;;14.77;4.22;;;;;;;7.70;100.00;99412.94;5024835;28;20076;-74
2023/12/13 06:50:25;;;;;;;16.38;4.78;;;;;;;7.70;100.00;99418.28;5029414;28;20029;-75
2023/12/13 06:52:51;;;;;;;17.08;5.07;;;;;;;7.70;100.00;99409.38;5029551;28;20112;-74
2023/12/13 06:55:18;;;;;;;19.60;4.80;;;;;;;7.71;100.00;99419.13;5032074;28;20026;-74
2023/12/13 06:57:44;;;;;;;20.83;5.13;;;;;;;7.71;100.00;99413.75;5041468;28;20025;-74
2023/12/13 07:00:09;;;;;;;19.73;5.00;;;;;;;7.70;100.00;99407.56;5027943;28;20032;-73
2023/12/13 07:02:36;;;;;;;18.33;4.60;;;;;;;7.70;100.00;99415.59;5039054;28;20503;-73
2023/12/13 07:05:02;;;;;;;16.73;4.32;;;;;;;7.70;100.00;99414.72;5039116;28;20033;-74
2023/12/13 07:07:27;;;;;;;19.60;5.07;;;;;;;7.69;100.00;99413.91;5032415;28;20546;-74
2023/12/13 07:09:52;;;;;;;20.10;5.00;;;;;;;7.69;100.00;99419.25;5038306;28;20493;-73
2023/12/13 07:12:20;;;;;;;15.25;4.18;;;;;;;7.69;100.00;99416.56;5031813;28;20099;-73
2023/12/13 07:14:45;;;;;;;19.63;4.68;;;;;;;7.70;100.00;99417.41;5031985;28;20029;-74
2023/12/13 07:17:11;;;;;;;21.17;4.80;;;;;;;7.70;100.00;99425.44;5031054;28;20047;-71
2023/12/13 07:19:36;;;;;;;14.45;4.38;;;;;;;7.67;100.00;99418.53;5033846;28;20386;-70
2023/12/13 07:22:01;;;;;;;22.73;5.22;;;;;;;7.67;100.00;99425.69;5033569;28;20021;-70
2023/12/13 07:24:27;;;;;;;19.02;4.35;;;;;;;7.66;100.00;99424.84;5042295;28;20048;-72
2023/12/13 07:26:52;;;;;;;14.05;4.28;;;;;;;7.65;100.00;99420.47;5035140;28;20071;-70
2023/12/13 07:29:17;;;;;;;18.70;5.18;;;;;;;7.65;100.00;99419.63;5037795;28;20050;-71
2023/12/13 07:31:42;;;;;;;14.60;4.50;;;;;;;7.66;100.00;99427.53;5039630;28;20374;-71
2023/12/13 07:34:08;;;;;;;20.60;5.32;;;;;;;7.65;100.00;99428.50;5036966;28;20483;-71
2023/12/13 07:36:34;;;;;;;15.70;4.93;;;;;;;7.68;100.00;99430.91;5039043;28;20036;-78
2023/12/13 07:39:00;;;;;;;16.17;4.70;;;;;;;7.68;100.00;99425.56;5031747;28;20452;-72
2023/12/13 07:41:25;;;;;;;21.20;4.85;;;;;;;7.70;100.00;99428.97;5033427;28;20021;-71
2023/12/13 07:43:52;;;;;;;13.23;4.38;;;;;;;7.72;100.00;99425.28;5030720;28;20049;-71
2023/12/13 07:46:17;;;;;;;21.58;5.35;;;;;;;7.72;100.00;99419.94;5033799;28;20028;-71
2023/12/13 07:48:42;;;;;;;16.83;5.25;;;;;;;7.70;100.00;99428.09;5033681;28;20029;-70
2023/12/13 07:51:08;;;;;;;19.42;5.25;;;;;;;7.73;100.00;99427.00;5031306;28;20068;-72
2023/12/13 07:53:33;;;;;;;17.35;4.78;;;;;;;7.72;100.00;99428.84;5038112;28;20021;-70
2023/12/13 07:55:58;;;;;;;19.25;4.30;;;;;;;7.74;100.00;99431.38;5032225;28;20033;-71
2023/12/13 07:58:23;;;;;;;20.58;5.97;;;;;;;7.73;100.00;99427.00;5028906;28;20072;-70
2023/12/13 08:00:49;;;;;;;20.42;5.20;;;;;;;7.73;100.00;99433.22;5029866;28;20021;-71
2023/12/13 08:03:14;;;;;;;21.65;6.05;;;;;;;7.74;100.00;99431.38;5031881;28;20040;-70
2023/12/13 08:05:39;;;;;;;17.98;5.13;;;;;;;7.73;100.00;99430.53;5035976;28;20100;-72
2023/12/13 08:08:05;;;;;;;21.38;5.43;;;;;;;7.73;100.00;99432.34;5037660;28;20115;-69
2023/12/13 08:10:30;;;;;;;19.48;5.85;;;;;;;7.74;100.00;99432.22;5031063;28;20021;-69
2023/12/13 08:12:56;;;;;;;17.67;5.45;;;;;;;7.75;100.00;99436.59;5035865;28;20090;-70
2023/12/13 08:15:21;;;;;;;20.05;5.45;;;;;;;7.76;100.00;99432.97;5033923;28;20111;-70
2023/12/13 08:17:46;;;;;;;22.27;6.57;;;;;;;7.76;100.00;99434.75;5037492;28;20044;-71
2023/12/13 08:20:11;;;;;;;21.30;6.15;;;;;;;7.76;100.00;99437.44;5039249;28;20028;-70
2023/12/13 08:22:37;;;;;;;19.40;5.47;;;;;;;7.77;100.00;99439.16;5038130;28;20021;-70
2023/12/13 08:25:03;;;;;;;19.23;5.32;;;;;;;7.77;100.00;99439.16;5040589;28;20037;-69
2023/12/13 08:27:28;;;;;;;23.30;5.85;;;;;;;7.77;100.00;99444.50;5034289;28;20112;-74
2023/12/13 08:29:53;;;;;;;19.40;5.47;;;;;;;7.76;100.00;99440.13;5029167;28;20030;-74
2023/12/13 08:32:19;;;;;;;19.73;5.68;;;;;;;7.78;100.00;99443.53;5033618;28;20025;-74
2023/12/13 08:34:44;;;;;;;15.82;4.95;;;;;;;7.79;100.00;99453.22;5036687;28;20028;-73
2023/12/13 08:37:10;;;;;;;15.25;4.70;;;;;;;7.79;100.00;99458.56;5035735;28;20028;-73
2023/12/13 08:39:35;;;;;;;21.05;5.45;;;;;;;7.81;100.00;99451.28;5036332;28;20028;-72
2023/12/13 08:42:00;;;;;;;21.60;6.03;;;;;;;7.81;100.00;99453.97;5031418;28;20022;-72
2023/12/13 08:44:26;;;;;;;19.92;5.50;;;;;;;7.83;100.00;99454.66;5030311;28;20056;-72
2023/12/13 08:46:52;;;;;;;20.83;5.95;;;;;;;7.84;100.00;99467.06;5037015;28;20029;-73
2023/12/13 08:49:19;;;;;;;20.60;5.63;;;;;;;7.89;100.00;99462.16;5028842;28;20009;-75
2023/12/13 08:51:44;;;;;;;17.58;5.10;;;;;;;7.91;100.00;99462.06;5036149;28;20040;-75
2023/12/13 08:54:09;;;;;;;21.33;5.63;;;;;;;7.93;100.00;99454.75;5037148;28;20345;-75
2023/12/13 08:56:35;;;;;;;22.13;6.13;;;;;;;7.96;100.00;99462.50;5039356;28;20427;-75
2023/12/13 08:59:01;;;;;;;20.95;5.90;;;;;;;7.99;100.00;99462.25;5040791;28;20112;-75
2023/12/13 09:01:27;;;;;;;25.17;5.65;;;;;;;8.01;100.00;99466.50;5033848;28;20026;-75
2023/12/13 09:03:53;;;;;;;20.30;5.50;;;;;;;8.02;100.00;99460.19;5032422;28;20338;-75
2023/12/13 09:06:18;;;;;;;18.60;5.38;;;;;;;8.04;100.00;99470.75;5035812;28;20078;-75
2023/12/13 09:08:44;;;;;;;20.67;4.95;;;;;;;8.06;100.00;99474.13;5037008;28;20045;-75
2023/12/13 09:11:10;;;;;;;18.85;4.82;;;;;;;8.05;100.00;99473.28;5038558;28;20036;-75
2023/12/13 09:13:35;;;;;;;21.98;4.75;;;;;;;8.07;100.00;99477.63;5033565;28;20025;-75
2023/12/13 09:16:00;;;;;;;19.83;6.22;;;;;;;8.07;100.00;99473.16;5020111;28;20416;-75
2023/12/13 09:18:26;;;;;;;21.83;5.55;;;;;;;8.09;100.00;99481.06;5033209;28;20088;-77
2023/12/13 09:20:51;;;;;;;21.05;6.13;;;;;;;8.11;100.00;99479.09;5029036;28;20497;-73
2023/12/13 09:23:23;;;;;;;19.67;5.75;;;;;;;8.12;100.00;99484.31;5023485;28;20108;-73
2023/12/13 09:25:49;;;;;;;22.13;5.75;;;;;;;8.14;100.00;99478.81;5027600;28;20044;-74
2023/12/13 09:28:15;;;;;;;20.70;5.10;;;;;;;8.13;100.00;99480.66;5029020;28;20036;-74
2023/12/13 09:30:40;;;;;;;22.77;6.93;;;;;;;8.15;100.00;99483.19;5027452;28;20076;-74
2023/12/13 09:33:06;;;;;;;20.45;5.93;;;;;;;8.18;100.00;99480.25;5026724;28;20071;-73
2023/12/13 09:35:32;;;;;;;19.88;6.13;;;;;;;8.18;100.00;99488.28;5030736;28;20048;-73
2023/12/13 09:37:57;;;;;;;16.23;4.88;;;;;;;8.16;100.00;99487.59;5038210;28;20074;-82
2023/12/13 09:40:23;;;;;;;20.70;5.03;;;;;;;8.16;100.00;99496.44;5041177;28;20465;-81
2023/12/13 09:42:48;;;;;;;19.83;6.15;;;;;;;8.17;100.00;99495.47;5039618;28;20148;-78
2023/12/13 09:45:21;;;;;;;22.17;6.00;;;;;;;8.17;100.00;99489.25;5038670;28;20064;-77
2023/12/13 09:47:49;;;;;;;18.88;5.47;;;;;;;8.17;100.00;99498.16;5040146;28;20071;-78
2023/12/13 09:50:15;;;;;;;19.27;5.82;;;;;;;8.18;100.00;99496.31;5033558;28;20024;-78
2023/12/13 09:52:41;;;;;;;21.88;6.22;;;;;;;8.17;100.00;99505.31;5042507;28;20029;-81
2023/12/13 09:55:08;;;;;;;19.75;5.82;;;;;;;8.16;100.00;99500.97;5042263;28;20027;-76
2023/12/13 09:57:33;;;;;;;20.17;5.97;;;;;;;8.16;100.00;99504.47;5037754;28;20029;-79
2023/12/13 09:59:59;;;;;;;20.17;5.97;;;;;;;8.16;100.00;99503.63;5032552;28;20034;-78
2023/12/13 10:02:24;;;;;;;17.02;5.70;;;;;;;8.15;100.00;99513.47;5038877;28;20060;-81
2023/12/13 10:04:52;;;;;;;20.85;6.28;;;;;;;8.18;100.00;99520.41;5041929;28;20021;-79
2023/12/13 10:07:17;;;;;;;15.65;5.68;;;;;;;8.19;100.00;99522.13;5038959;28;20025;-78
2023/12/13 10:09:44;;;;;;;17.05;5.38;;;;;;;8.19;100.00;99516.75;5045146;28;20021;-76
2023/12/13 10:12:12;;;;;;;17.70;5.55;;;;;;;8.20;100.00;99521.16;5038286;28;20548;-77
2023/12/13 10:14:37;;;;;;;18.95;6.05;;;;;;;8.21;100.00;99520.16;5046957;28;20481;-77
2023/12/13 10:17:03;;;;;;;17.83;6.20;;;;;;;8.19;100.00;99525.63;5036181;28;20166;-76
2023/12/13 10:19:29;;;;;;;16.52;6.00;;;;;;;8.19;100.00;99530.13;5036062;28;20026;-75
2023/12/13 10:21:54;;;;;;;20.30;5.95;;;;;;;8.18;100.00;99529.28;5039467;28;20096;-75
2023/12/13 10:24:24;;;;;;;22.77;6.68;;;;;;;8.18;100.00;99536.47;5037939;28;20025;-77
2023/12/13 10:26:50;;;;;;;18.50;6.32;;;;;;;8.18;100.00;99531.94;5033120;28;20040;-76
2023/12/13 10:29:19;;;;;;;19.80;6.22;;;;;;;8.19;100.00;99528.31;5049198;28;20032;-75
2023/12/13 10:31:45;;;;;;;19.55;6.05;;;;;;;8.18;100.00;99529.28;5037211;28;20033;-77
2023/12/13 10:34:10;;;;;;;19.25;6.55;;;;;;;8.17;100.00;99529.41;5041274;28;20025;-79
2023/12/13 10:36:35;;;;;;;19.20;6.00;;;;;;;8.18;100.00;99528.44;5050074;28;20010;-78
2023/12/13 10:39:05;;;;;;;22.70;7.38;;;;;;;8.19;100.00;99530.13;5113491;22;20046;-80
2023/12/13 10:41:31;;;;;;;22.20;6.43;;;;;;;8.18;100.00;99539.97;5068363;28;20076;-78
2023/12/13 10:43:58;;;;;;;27.60;6.88;;;;;;;8.18;100.00;99536.47;5071843;28;20381;-79
2023/12/13 10:46:27;;;;;;;20.33;6.13;;;;;;;8.20;100.00;99531.84;5064633;28;20077;-79
2023/12/13 10:48:54;;;;;;;16.77;5.63;;;;;;;8.21;100.00;99534.41;5075275;28;20484;-78
2023/12/13 10:51:21;;;;;;;22.02;6.88;;;;;;;8.23;100.00;99529.75;5073437;28;20025;-79
2023/12/13 10:53:48;;;;;;;24.77;6.68;;;;;;;8.25;100.00;99534.13;5071468;28;20115;-80
2023/12/13 10:56:15;;;;;;;18.73;6.30;;;;;;;8.26;100.00;99533.13;5073589;28;20049;-80
2023/12/13 10:58:44;;;;;;;20.30;6.13;;;;;;;8.26;100.00;99527.78;5068255;28;20017;-78
2023/12/13 11:01:14;;;;;;;22.08;7.05;;;;;;;8.28;100.00;99526.69;5069900;28;20064;-78
2023/12/13 11:04:05;;;;;;;20.70;6.63;;;;;;;8.31;100.00;99528.25;5083228;28;20016;-78
2023/12/13 11:06:30;;;;;;;14.60;5.20;;;;;;;8.30;100.00;99526.53;5070840;28;20036;-79
2023/12/13 11:08:55;;;;;;;21.25;6.07;;;;;;;8.32;100.00;99535.31;5066587;28;20048;-78
2023/12/13 11:11:27;;;;;;;19.42;5.25;;;;;;;8.31;100.00;99536.28;5065426;28;20021;-78
2023/12/13 11:13:53;;;;;;;22.40;6.78;;;;;;;8.30;100.00;99532.75;5066188;28;20469;-78
2023/12/13 11:16:25;;;;;;;16.77;5.97;;;;;;;8.33;100.00;99537.84;5060387;28;20024;-79
2023/12/13 11:18:58;;;;;;;19.52;5.38;;;;;;;8.34;100.00;99536.84;5064398;28;20033;-78
2023/12/13 11:21:27;;;;;;;19.08;5.82;;;;;;;8.37;100.00;99541.94;5067382;28;20059;-78